sensor_id;sensor_type;location;lat;lon;timestamp;P1;durP1;ratioP1;P2;durP2;ratioP2
9689;SDS011;4884;42.614;23.340;2023-06-22T00:00:41;7.70;;;7.03;;
9689;SDS011;4884;42.614;23.340;2023-06-22T00:03:07;8.80;;;7.43;;
9689;SDS011;4884;42.614;23.340;2023-06-22T00:05:33;8.30;;;7.60;;
9689;SDS011;4884;42.614;23.340;2023-06-22T00:08:01;8.53;;;7.83;;
9689;SDS011;4884;42.614;23.340;2023-06-22T00:10:28;7.93;;;7.13;;
9689;SDS011;4884;42.614;23.340;2023-06-22T00:12:53;6.90;;;6.30;;
9689;SDS011;4884;42.614;23.340;2023-06-22T00:15:18;8.83;;;7.10;;
9689;SDS011;4884;42.614;23.340;2023-06-22T00:17:45;8.00;;;7.30;;
9689;SDS011;4884;42.614;23.340;2023-06-22T00:20:10;7.40;;;6.80;;
9689;SDS011;4884;42.614;23.340;2023-06-22T00:22:36;8.27;;;7.57;;
9689;SDS011;4884;42.614;23.340;2023-06-22T00:25:05;8.03;;;6.73;;
9689;SDS011;4884;42.614;23.340;2023-06-22T00:27:34;8.17;;;7.33;;
9689;SDS011;4884;42.614;23.340;2023-06-22T00:29:59;9.10;;;7.57;;
9689;SDS011;4884;42.614;23.340;2023-06-22T00:32:25;7.50;;;6.83;;
9689;SDS011;4884;42.614;23.340;2023-06-22T00:34:50;7.83;;;7.10;;
9689;SDS011;4884;42.614;23.340;2023-06-22T00:37:16;8.23;;;7.53;;
9689;SDS011;4884;42.614;23.340;2023-06-22T00:39:42;8.30;;;7.57;;
9689;SDS011;4884;42.614;23.340;2023-06-22T00:42:08;8.67;;;7.93;;
9689;SDS011;4884;42.614;23.340;2023-06-22T00:44:34;7.97;;;7.27;;
9689;SDS011;4884;42.614;23.340;2023-06-22T00:47:00;8.43;;;7.73;;
9689;SDS011;4884;42.614;23.340;2023-06-22T00:49:25;9.17;;;7.17;;
9689;SDS011;4884;42.614;23.340;2023-06-22T00:51:51;7.43;;;6.73;;
9689;SDS011;4884;42.614;23.340;2023-06-22T00:54:17;7.67;;;6.97;;
9689;SDS011;4884;42.614;23.340;2023-06-22T00:56:55;7.63;;;7.03;;
9689;SDS011;4884;42.614;23.340;2023-06-22T00:59:23;7.77;;;7.17;;
9689;SDS011;4884;42.614;23.340;2023-06-22T01:01:48;7.40;;;6.80;;
9689;SDS011;4884;42.614;23.340;2023-06-22T01:04:14;7.17;;;6.53;;
9689;SDS011;4884;42.614;23.340;2023-06-22T01:06:54;7.47;;;6.83;;
9689;SDS011;4884;42.614;23.340;2023-06-22T01:09:22;8.50;;;7.70;;
9689;SDS011;4884;42.614;23.340;2023-06-22T01:11:57;8.00;;;7.23;;
9689;SDS011;4884;42.614;23.340;2023-06-22T01:14:32;7.77;;;7.03;;
9689;SDS011;4884;42.614;23.340;2023-06-22T01:16:59;8.23;;;7.43;;
9689;SDS011;4884;42.614;23.340;2023-06-22T01:22:06;8.33;;;7.63;;
9689;SDS011;4884;42.614;23.340;2023-06-22T01:24:50;9.00;;;7.57;;
9689;SDS011;4884;42.614;23.340;2023-06-22T01:27:36;8.10;;;7.40;;
9689;SDS011;4884;42.614;23.340;2023-06-22T01:30:10;7.83;;;7.13;;
9689;SDS011;4884;42.614;23.340;2023-06-22T01:32:37;8.87;;;7.80;;
9689;SDS011;4884;42.614;23.340;2023-06-22T01:35:04;8.03;;;7.33;;
9689;SDS011;4884;42.614;23.340;2023-06-22T01:37:31;7.77;;;6.97;;
9689;SDS011;4884;42.614;23.340;2023-06-22T01:39:58;8.40;;;7.70;;
9689;SDS011;4884;42.614;23.340;2023-06-22T01:42:24;7.90;;;7.10;;
9689;SDS011;4884;42.614;23.340;2023-06-22T01:44:50;8.80;;;7.90;;
9689;SDS011;4884;42.614;23.340;2023-06-22T01:47:20;8.57;;;7.80;;
9689;SDS011;4884;42.614;23.340;2023-06-22T01:49:46;8.90;;;7.87;;
9689;SDS011;4884;42.614;23.340;2023-06-22T01:52:11;8.23;;;7.60;;
9689;SDS011;4884;42.614;23.340;2023-06-22T01:54:38;8.40;;;7.60;;
9689;SDS011;4884;42.614;23.340;2023-06-22T01:57:04;9.57;;;8.57;;
9689;SDS011;4884;42.614;23.340;2023-06-22T01:59:34;8.13;;;7.50;;
9689;SDS011;4884;42.614;23.340;2023-06-22T02:02:06;9.27;;;8.47;;
9689;SDS011;4884;42.614;23.340;2023-06-22T02:04:34;8.80;;;7.93;;
9689;SDS011;4884;42.614;23.340;2023-06-22T02:07:02;8.47;;;7.77;;
9689;SDS011;4884;42.614;23.340;2023-06-22T02:09:31;8.07;;;7.23;;
9689;SDS011;4884;42.614;23.340;2023-06-22T02:11:56;9.80;;;8.90;;
9689;SDS011;4884;42.614;23.340;2023-06-22T02:14:23;9.90;;;7.80;;
9689;SDS011;4884;42.614;23.340;2023-06-22T02:16:49;9.60;;;8.70;;
9689;SDS011;4884;42.614;23.340;2023-06-22T02:19:16;10.37;;;8.20;;
9689;SDS011;4884;42.614;23.340;2023-06-22T02:21:43;9.10;;;8.20;;
9689;SDS011;4884;42.614;23.340;2023-06-22T02:24:09;8.73;;;7.93;;
9689;SDS011;4884;42.614;23.340;2023-06-22T02:26:34;9.90;;;8.87;;
9689;SDS011;4884;42.614;23.340;2023-06-22T02:29:00;10.07;;;9.07;;
9689;SDS011;4884;42.614;23.340;2023-06-22T02:31:25;8.87;;;8.07;;
9689;SDS011;4884;42.614;23.340;2023-06-22T02:33:58;9.77;;;8.77;;
9689;SDS011;4884;42.614;23.340;2023-06-22T02:36:24;9.50;;;8.50;;
9689;SDS011;4884;42.614;23.340;2023-06-22T02:38:51;9.83;;;8.87;;
9689;SDS011;4884;42.614;23.340;2023-06-22T02:41:17;9.63;;;8.73;;
9689;SDS011;4884;42.614;23.340;2023-06-22T02:43:44;10.07;;;9.07;;
9689;SDS011;4884;42.614;23.340;2023-06-22T02:46:10;9.93;;;9.00;;
9689;SDS011;4884;42.614;23.340;2023-06-22T02:48:36;10.77;;;9.67;;
9689;SDS011;4884;42.614;23.340;2023-06-22T02:51:01;9.60;;;8.80;;
9689;SDS011;4884;42.614;23.340;2023-06-22T02:53:26;9.70;;;8.80;;
9689;SDS011;4884;42.614;23.340;2023-06-22T02:55:52;10.17;;;9.17;;
9689;SDS011;4884;42.614;23.340;2023-06-22T02:58:17;10.47;;;9.47;;
9689;SDS011;4884;42.614;23.340;2023-06-22T03:00:43;11.13;;;10.00;;
9689;SDS011;4884;42.614;23.340;2023-06-22T03:03:08;12.77;;;11.37;;
9689;SDS011;4884;42.614;23.340;2023-06-22T03:05:34;21.20;;;19.07;;
9689;SDS011;4884;42.614;23.340;2023-06-22T03:08:00;15.57;;;14.07;;
9689;SDS011;4884;42.614;23.340;2023-06-22T03:10:25;12.40;;;11.30;;
9689;SDS011;4884;42.614;23.340;2023-06-22T03:12:51;11.90;;;10.80;;
9689;SDS011;4884;42.614;23.340;2023-06-22T03:15:16;14.20;;;12.50;;
9689;SDS011;4884;42.614;23.340;2023-06-22T03:17:44;11.33;;;10.17;;
9689;SDS011;4884;42.614;23.340;2023-06-22T03:20:10;11.37;;;10.10;;
9689;SDS011;4884;42.614;23.340;2023-06-22T03:22:39;10.70;;;9.70;;
9689;SDS011;4884;42.614;23.340;2023-06-22T03:25:06;12.87;;;11.77;;
9689;SDS011;4884;42.614;23.340;2023-06-22T03:27:37;11.53;;;10.53;;
9689;SDS011;4884;42.614;23.340;2023-06-22T03:30:03;14.20;;;12.90;;
9689;SDS011;4884;42.614;23.340;2023-06-22T03:32:29;12.83;;;11.70;;
9689;SDS011;4884;42.614;23.340;2023-06-22T03:34:55;15.50;;;11.07;;
9689;SDS011;4884;42.614;23.340;2023-06-22T03:37:24;12.50;;;11.27;;
9689;SDS011;4884;42.614;23.340;2023-06-22T03:39:50;26.53;;;24.13;;
9689;SDS011;4884;42.614;23.340;2023-06-22T03:42:15;12.30;;;11.17;;
9689;SDS011;4884;42.614;23.340;2023-06-22T03:44:40;12.00;;;10.70;;
9689;SDS011;4884;42.614;23.340;2023-06-22T03:47:06;10.93;;;9.83;;
9689;SDS011;4884;42.614;23.340;2023-06-22T03:49:32;13.47;;;10.17;;
9689;SDS011;4884;42.614;23.340;2023-06-22T03:51:59;11.43;;;10.30;;
9689;SDS011;4884;42.614;23.340;2023-06-22T03:54:25;11.67;;;10.57;;
9689;SDS011;4884;42.614;23.340;2023-06-22T03:56:51;13.57;;;11.13;;
9689;SDS011;4884;42.614;23.340;2023-06-22T03:59:16;12.13;;;10.80;;
9689;SDS011;4884;42.614;23.340;2023-06-22T04:01:41;14.00;;;11.73;;
9689;SDS011;4884;42.614;23.340;2023-06-22T04:04:07;13.47;;;12.13;;
9689;SDS011;4884;42.614;23.340;2023-06-22T04:06:32;13.03;;;11.80;;
9689;SDS011;4884;42.614;23.340;2023-06-22T04:08:59;14.37;;;12.87;;
9689;SDS011;4884;42.614;23.340;2023-06-22T04:11:25;14.80;;;13.40;;
9689;SDS011;4884;42.614;23.340;2023-06-22T04:13:51;16.80;;;15.03;;
9689;SDS011;4884;42.614;23.340;2023-06-22T04:16:16;16.53;;;15.07;;
9689;SDS011;4884;42.614;23.340;2023-06-22T04:18:42;16.13;;;14.50;;
9689;SDS011;4884;42.614;23.340;2023-06-22T04:21:07;16.93;;;13.63;;
9689;SDS011;4884;42.614;23.340;2023-06-22T04:23:33;15.00;;;12.30;;
9689;SDS011;4884;42.614;23.340;2023-06-22T04:25:58;13.50;;;12.00;;
9689;SDS011;4884;42.614;23.340;2023-06-22T04:28:24;14.10;;;12.60;;
9689;SDS011;4884;42.614;23.340;2023-06-22T04:30:50;13.27;;;11.97;;
9689;SDS011;4884;42.614;23.340;2023-06-22T04:33:16;11.13;;;9.97;;
9689;SDS011;4884;42.614;23.340;2023-06-22T04:35:42;11.70;;;10.70;;
9689;SDS011;4884;42.614;23.340;2023-06-22T04:38:11;12.30;;;11.17;;
9689;SDS011;4884;42.614;23.340;2023-06-22T04:40:38;11.27;;;10.27;;
9689;SDS011;4884;42.614;23.340;2023-06-22T04:43:04;12.80;;;10.40;;
9689;SDS011;4884;42.614;23.340;2023-06-22T04:45:31;11.77;;;10.63;;
9689;SDS011;4884;42.614;23.340;2023-06-22T04:47:56;11.77;;;10.67;;
9689;SDS011;4884;42.614;23.340;2023-06-22T04:50:22;10.87;;;9.97;;
9689;SDS011;4884;42.614;23.340;2023-06-22T04:52:48;10.80;;;9.80;;
9689;SDS011;4884;42.614;23.340;2023-06-22T04:55:14;10.50;;;9.70;;
9689;SDS011;4884;42.614;23.340;2023-06-22T04:57:45;11.70;;;10.67;;
9689;SDS011;4884;42.614;23.340;2023-06-22T05:00:14;11.27;;;10.27;;
9689;SDS011;4884;42.614;23.340;2023-06-22T05:02:42;12.67;;;11.50;;
9689;SDS011;4884;42.614;23.340;2023-06-22T05:05:09;12.83;;;11.50;;
9689;SDS011;4884;42.614;23.340;2023-06-22T05:07:39;12.10;;;10.97;;
9689;SDS011;4884;42.614;23.340;2023-06-22T05:10:08;16.50;;;12.07;;
9689;SDS011;4884;42.614;23.340;2023-06-22T05:12:35;14.13;;;12.13;;
9689;SDS011;4884;42.614;23.340;2023-06-22T05:15:00;17.17;;;12.90;;
9689;SDS011;4884;42.614;23.340;2023-06-22T05:17:26;14.67;;;12.23;;
9689;SDS011;4884;42.614;23.340;2023-06-22T05:19:52;16.90;;;14.30;;
9689;SDS011;4884;42.614;23.340;2023-06-22T05:22:17;15.30;;;13.67;;
9689;SDS011;4884;42.614;23.340;2023-06-22T05:24:43;14.40;;;13.00;;
9689;SDS011;4884;42.614;23.340;2023-06-22T05:27:09;17.57;;;14.13;;
9689;SDS011;4884;42.614;23.340;2023-06-22T05:29:36;17.80;;;14.23;;
9689;SDS011;4884;42.614;23.340;2023-06-22T05:32:02;15.07;;;13.63;;
9689;SDS011;4884;42.614;23.340;2023-06-22T05:34:27;17.27;;;13.87;;
9689;SDS011;4884;42.614;23.340;2023-06-22T05:36:53;15.77;;;14.27;;
9689;SDS011;4884;42.614;23.340;2023-06-22T05:39:18;18.17;;;14.30;;
9689;SDS011;4884;42.614;23.340;2023-06-22T05:41:44;15.80;;;14.30;;
9689;SDS011;4884;42.614;23.340;2023-06-22T05:44:10;17.80;;;14.33;;
9689;SDS011;4884;42.614;23.340;2023-06-22T05:46:36;17.47;;;14.33;;
9689;SDS011;4884;42.614;23.340;2023-06-22T05:49:02;15.40;;;13.93;;
9689;SDS011;4884;42.614;23.340;2023-06-22T05:51:27;17.07;;;15.37;;
9689;SDS011;4884;42.614;23.340;2023-06-22T05:53:52;17.67;;;16.07;;
9689;SDS011;4884;42.614;23.340;2023-06-22T05:56:18;18.47;;;15.67;;
9689;SDS011;4884;42.614;23.340;2023-06-22T05:58:43;18.60;;;15.57;;
9689;SDS011;4884;42.614;23.340;2023-06-22T06:01:09;17.57;;;15.70;;
9689;SDS011;4884;42.614;23.340;2023-06-22T06:03:34;17.90;;;16.20;;
9689;SDS011;4884;42.614;23.340;2023-06-22T06:06:05;17.13;;;15.23;;
9689;SDS011;4884;42.614;23.340;2023-06-22T06:08:31;21.83;;;16.33;;
9689;SDS011;4884;42.614;23.340;2023-06-22T06:10:56;20.83;;;16.87;;
9689;SDS011;4884;42.614;23.340;2023-06-22T06:13:22;20.87;;;15.50;;
9689;SDS011;4884;42.614;23.340;2023-06-22T06:15:48;16.60;;;14.93;;
9689;SDS011;4884;42.614;23.340;2023-06-22T06:18:16;20.30;;;15.87;;
9689;SDS011;4884;42.614;23.340;2023-06-22T06:20:42;17.77;;;15.83;;
9689;SDS011;4884;42.614;23.340;2023-06-22T06:23:07;19.30;;;16.10;;
9689;SDS011;4884;42.614;23.340;2023-06-22T06:25:33;18.33;;;16.03;;
9689;SDS011;4884;42.614;23.340;2023-06-22T06:27:58;20.17;;;14.53;;
9689;SDS011;4884;42.614;23.340;2023-06-22T06:30:24;19.10;;;14.60;;
9689;SDS011;4884;42.614;23.340;2023-06-22T06:32:49;17.50;;;14.47;;
9689;SDS011;4884;42.614;23.340;2023-06-22T06:35:15;15.93;;;14.30;;
9689;SDS011;4884;42.614;23.340;2023-06-22T06:37:42;15.90;;;13.70;;
9689;SDS011;4884;42.614;23.340;2023-06-22T06:40:09;16.37;;;14.43;;
9689;SDS011;4884;42.614;23.340;2023-06-22T06:42:42;15.07;;;13.37;;
9689;SDS011;4884;42.614;23.340;2023-06-22T06:45:12;14.23;;;12.93;;
9689;SDS011;4884;42.614;23.340;2023-06-22T06:47:39;13.90;;;12.60;;
9689;SDS011;4884;42.614;23.340;2023-06-22T06:50:05;15.60;;;13.80;;
9689;SDS011;4884;42.614;23.340;2023-06-22T06:52:31;18.95;;;14.40;;
9689;SDS011;4884;42.614;23.340;2023-06-22T06:54:57;14.90;;;12.45;;
9689;SDS011;4884;42.614;23.340;2023-06-22T06:57:23;15.88;;;13.25;;
9689;SDS011;4884;42.614;23.340;2023-06-22T06:59:48;18.40;;;14.00;;
9689;SDS011;4884;42.614;23.340;2023-06-22T07:02:14;14.40;;;12.70;;
9689;SDS011;4884;42.614;23.340;2023-06-22T07:04:40;13.80;;;12.40;;
9689;SDS011;4884;42.614;23.340;2023-06-22T07:07:06;14.23;;;12.82;;
9689;SDS011;4884;42.614;23.340;2023-06-22T07:09:31;14.30;;;12.85;;
9689;SDS011;4884;42.614;23.340;2023-06-22T07:11:57;18.25;;;12.82;;
9689;SDS011;4884;42.614;23.340;2023-06-22T07:14:22;13.50;;;11.93;;
9689;SDS011;4884;42.614;23.340;2023-06-22T07:16:47;17.70;;;12.05;;
9689;SDS011;4884;42.614;23.340;2023-06-22T07:19:13;13.20;;;11.90;;
9689;SDS011;4884;42.614;23.340;2023-06-22T07:21:38;12.35;;;11.23;;
9689;SDS011;4884;42.614;23.340;2023-06-22T07:24:04;13.00;;;11.60;;
9689;SDS011;4884;42.614;23.340;2023-06-22T07:26:31;14.55;;;12.90;;
9689;SDS011;4884;42.614;23.340;2023-06-22T07:28:56;12.73;;;11.45;;
9689;SDS011;4884;42.614;23.340;2023-06-22T07:31:23;13.93;;;12.50;;
9689;SDS011;4884;42.614;23.340;2023-06-22T07:33:49;15.38;;;12.25;;
9689;SDS011;4884;42.614;23.340;2023-06-22T07:36:14;13.65;;;12.48;;
9689;SDS011;4884;42.614;23.340;2023-06-22T07:38:41;17.27;;;12.60;;
9689;SDS011;4884;42.614;23.340;2023-06-22T07:41:06;12.52;;;11.23;;
9689;SDS011;4884;42.614;23.340;2023-06-22T07:43:32;15.27;;;13.38;;
9689;SDS011;4884;42.614;23.340;2023-06-22T07:45:59;14.40;;;12.82;;
9689;SDS011;4884;42.614;23.340;2023-06-22T07:48:24;17.35;;;13.40;;
9689;SDS011;4884;42.614;23.340;2023-06-22T07:50:50;15.55;;;13.43;;
9689;SDS011;4884;42.614;23.340;2023-06-22T07:53:15;13.13;;;11.77;;
9689;SDS011;4884;42.614;23.340;2023-06-22T07:55:41;13.18;;;11.98;;
9689;SDS011;4884;42.614;23.340;2023-06-22T07:58:06;14.48;;;13.18;;
9689;SDS011;4884;42.614;23.340;2023-06-22T08:00:33;14.30;;;12.80;;
9689;SDS011;4884;42.614;23.340;2023-06-22T08:02:59;13.40;;;12.18;;
9689;SDS011;4884;42.614;23.340;2023-06-22T08:05:24;14.57;;;11.93;;
9689;SDS011;4884;42.614;23.340;2023-06-22T08:07:49;14.05;;;12.73;;
9689;SDS011;4884;42.614;23.340;2023-06-22T08:10:15;13.32;;;11.98;;
9689;SDS011;4884;42.614;23.340;2023-06-22T08:12:40;14.02;;;12.63;;
9689;SDS011;4884;42.614;23.340;2023-06-22T08:15:06;14.95;;;13.52;;
9689;SDS011;4884;42.614;23.340;2023-06-22T08:17:32;13.90;;;12.50;;
9689;SDS011;4884;42.614;23.340;2023-06-22T08:19:58;14.10;;;12.98;;
9689;SDS011;4884;42.614;23.340;2023-06-22T08:22:23;14.00;;;12.70;;
9689;SDS011;4884;42.614;23.340;2023-06-22T08:24:49;13.75;;;12.30;;
9689;SDS011;4884;42.614;23.340;2023-06-22T08:27:14;15.82;;;14.23;;
9689;SDS011;4884;42.614;23.340;2023-06-22T08:29:42;14.13;;;12.82;;
9689;SDS011;4884;42.614;23.340;2023-06-22T08:32:10;14.48;;;13.07;;
9689;SDS011;4884;42.614;23.340;2023-06-22T08:34:36;13.82;;;12.48;;
9689;SDS011;4884;42.614;23.340;2023-06-22T08:37:02;13.80;;;12.20;;
9689;SDS011;4884;42.614;23.340;2023-06-22T08:39:31;13.43;;;12.23;;
9689;SDS011;4884;42.614;23.340;2023-06-22T08:41:57;14.00;;;12.68;;
9689;SDS011;4884;42.614;23.340;2023-06-22T08:44:22;18.00;;;14.13;;
9689;SDS011;4884;42.614;23.340;2023-06-22T08:46:47;19.00;;;14.65;;
9689;SDS011;4884;42.614;23.340;2023-06-22T08:49:13;15.27;;;13.68;;
9689;SDS011;4884;42.614;23.340;2023-06-22T08:51:38;14.77;;;13.35;;
9689;SDS011;4884;42.614;23.340;2023-06-22T08:54:03;18.55;;;13.15;;
9689;SDS011;4884;42.614;23.340;2023-06-22T08:56:29;13.77;;;12.57;;
9689;SDS011;4884;42.614;23.340;2023-06-22T08:58:54;16.15;;;12.23;;
9689;SDS011;4884;42.614;23.340;2023-06-22T09:01:20;14.32;;;12.73;;
9689;SDS011;4884;42.614;23.340;2023-06-22T09:03:45;12.70;;;11.63;;
9689;SDS011;4884;42.614;23.340;2023-06-22T09:06:19;13.07;;;11.88;;
9689;SDS011;4884;42.614;23.340;2023-06-22T09:08:46;15.65;;;13.05;;
9689;SDS011;4884;42.614;23.340;2023-06-22T09:11:12;12.68;;;11.60;;
9689;SDS011;4884;42.614;23.340;2023-06-22T09:13:37;12.00;;;11.00;;
9689;SDS011;4884;42.614;23.340;2023-06-22T09:16:02;12.52;;;11.30;;
9689;SDS011;4884;42.614;23.340;2023-06-22T09:18:28;13.88;;;12.63;;
9689;SDS011;4884;42.614;23.340;2023-06-22T09:20:53;14.57;;;13.23;;
9689;SDS011;4884;42.614;23.340;2023-06-22T09:23:19;13.35;;;12.20;;
9689;SDS011;4884;42.614;23.340;2023-06-22T09:25:44;14.50;;;12.68;;
9689;SDS011;4884;42.614;23.340;2023-06-22T09:28:11;14.75;;;13.57;;
9689;SDS011;4884;42.614;23.340;2023-06-22T09:30:37;15.27;;;13.20;;
9689;SDS011;4884;42.614;23.340;2023-06-22T09:33:02;13.32;;;12.20;;
9689;SDS011;4884;42.614;23.340;2023-06-22T09:35:28;11.88;;;10.95;;
9689;SDS011;4884;42.614;23.340;2023-06-22T09:37:53;11.77;;;10.68;;
9689;SDS011;4884;42.614;23.340;2023-06-22T09:40:18;11.75;;;10.73;;
9689;SDS011;4884;42.614;23.340;2023-06-22T09:42:45;12.50;;;11.20;;
9689;SDS011;4884;42.614;23.340;2023-06-22T09:45:10;12.63;;;11.40;;
9689;SDS011;4884;42.614;23.340;2023-06-22T09:47:36;12.20;;;10.95;;
9689;SDS011;4884;42.614;23.340;2023-06-22T09:50:01;11.88;;;10.77;;
9689;SDS011;4884;42.614;23.340;2023-06-22T09:52:27;12.40;;;11.20;;
9689;SDS011;4884;42.614;23.340;2023-06-22T09:54:52;11.93;;;10.85;;
9689;SDS011;4884;42.614;23.340;2023-06-22T09:57:18;12.27;;;11.38;;
9689;SDS011;4884;42.614;23.340;2023-06-22T09:59:43;13.88;;;11.23;;
9689;SDS011;4884;42.614;23.340;2023-06-22T10:02:08;11.73;;;10.45;;
9689;SDS011;4884;42.614;23.340;2023-06-22T10:04:34;11.73;;;10.68;;
9689;SDS011;4884;42.614;23.340;2023-06-22T10:07:00;11.27;;;10.32;;
9689;SDS011;4884;42.614;23.340;2023-06-22T10:09:26;12.13;;;11.05;;
9689;SDS011;4884;42.614;23.340;2023-06-22T10:11:52;11.38;;;10.50;;
9689;SDS011;4884;42.614;23.340;2023-06-22T10:14:17;11.07;;;10.05;;
9689;SDS011;4884;42.614;23.340;2023-06-22T10:16:43;11.55;;;10.48;;
9689;SDS011;4884;42.614;23.340;2023-06-22T10:19:08;10.30;;;9.57;;
9689;SDS011;4884;42.614;23.340;2023-06-22T10:21:33;9.60;;;8.90;;
9689;SDS011;4884;42.614;23.340;2023-06-22T10:23:59;11.10;;;9.93;;
9689;SDS011;4884;42.614;23.340;2023-06-22T10:26:31;10.70;;;9.70;;
9689;SDS011;4884;42.614;23.340;2023-06-22T10:29:00;16.33;;;10.68;;
9689;SDS011;4884;42.614;23.340;2023-06-22T10:31:25;10.63;;;9.82;;
9689;SDS011;4884;42.614;23.340;2023-06-22T10:33:52;10.60;;;9.80;;
9689;SDS011;4884;42.614;23.340;2023-06-22T10:36:18;10.18;;;9.38;;
9689;SDS011;4884;42.614;23.340;2023-06-22T10:38:44;11.35;;;10.35;;
9689;SDS011;4884;42.614;23.340;2023-06-22T10:41:10;11.98;;;10.60;;
9689;SDS011;4884;42.614;23.340;2023-06-22T10:43:35;10.98;;;10.13;;
9689;SDS011;4884;42.614;23.340;2023-06-22T10:46:01;11.32;;;10.32;;
9689;SDS011;4884;42.614;23.340;2023-06-22T10:48:26;12.40;;;11.02;;
9689;SDS011;4884;42.614;23.340;2023-06-22T10:50:52;13.13;;;10.13;;
9689;SDS011;4884;42.614;23.340;2023-06-22T10:53:18;11.68;;;10.48;;
9689;SDS011;4884;42.614;23.340;2023-06-22T10:55:43;10.70;;;9.77;;
9689;SDS011;4884;42.614;23.340;2023-06-22T10:58:09;9.93;;;9.13;;
9689;SDS011;4884;42.614;23.340;2023-06-22T11:00:34;11.05;;;10.15;;
9689;SDS011;4884;42.614;23.340;2023-06-22T11:03:00;11.55;;;10.45;;
9689;SDS011;4884;42.614;23.340;2023-06-22T11:05:25;10.52;;;9.75;;
9689;SDS011;4884;42.614;23.340;2023-06-22T11:07:50;9.68;;;8.98;;
9689;SDS011;4884;42.614;23.340;2023-06-22T11:10:16;11.95;;;10.80;;
9689;SDS011;4884;42.614;23.340;2023-06-22T11:12:41;11.60;;;10.40;;
9689;SDS011;4884;42.614;23.340;2023-06-22T11:15:08;12.18;;;11.13;;
9689;SDS011;4884;42.614;23.340;2023-06-22T11:17:34;11.10;;;10.30;;
9689;SDS011;4884;42.614;23.340;2023-06-22T11:19:59;11.90;;;10.80;;
9689;SDS011;4884;42.614;23.340;2023-06-22T11:22:25;11.32;;;10.10;;
9689;SDS011;4884;42.614;23.340;2023-06-22T11:24:51;11.77;;;10.77;;
9689;SDS011;4884;42.614;23.340;2023-06-22T11:27:16;11.30;;;10.30;;
9689;SDS011;4884;42.614;23.340;2023-06-22T11:29:42;10.68;;;9.88;;
9689;SDS011;4884;42.614;23.340;2023-06-22T11:32:07;10.77;;;10.00;;
9689;SDS011;4884;42.614;23.340;2023-06-22T11:34:33;10.93;;;9.85;;
9689;SDS011;4884;42.614;23.340;2023-06-22T11:36:59;11.57;;;10.77;;
9689;SDS011;4884;42.614;23.340;2023-06-22T11:39:24;17.75;;;11.90;;
9689;SDS011;4884;42.614;23.340;2023-06-22T11:41:49;12.60;;;11.20;;
9689;SDS011;4884;42.614;23.340;2023-06-22T11:44:15;11.70;;;10.52;;
9689;SDS011;4884;42.614;23.340;2023-06-22T11:46:40;12.40;;;11.15;;
9689;SDS011;4884;42.614;23.340;2023-06-22T11:49:06;12.77;;;10.88;;
9689;SDS011;4884;42.614;23.340;2023-06-22T11:51:31;12.48;;;11.45;;
9689;SDS011;4884;42.614;23.340;2023-06-22T11:53:56;11.38;;;10.48;;
9689;SDS011;4884;42.614;23.340;2023-06-22T11:56:22;11.52;;;10.68;;
9689;SDS011;4884;42.614;23.340;2023-06-22T11:58:47;16.88;;;15.20;;
9689;SDS011;4884;42.614;23.340;2023-06-22T12:01:13;12.23;;;11.13;;
9689;SDS011;4884;42.614;23.340;2023-06-22T12:03:40;11.38;;;10.48;;
9689;SDS011;4884;42.614;23.340;2023-06-22T12:06:06;11.95;;;10.95;;
9689;SDS011;4884;42.614;23.340;2023-06-22T12:08:31;12.15;;;11.02;;
9689;SDS011;4884;42.614;23.340;2023-06-22T12:10:57;11.95;;;10.75;;
9689;SDS011;4884;42.614;23.340;2023-06-22T12:13:22;12.07;;;11.18;;
9689;SDS011;4884;42.614;23.340;2023-06-22T12:15:47;12.77;;;11.48;;
9689;SDS011;4884;42.614;23.340;2023-06-22T12:18:13;12.25;;;11.13;;
9689;SDS011;4884;42.614;23.340;2023-06-22T12:20:41;11.93;;;10.82;;
9689;SDS011;4884;42.614;23.340;2023-06-22T12:23:07;12.43;;;11.30;;
9689;SDS011;4884;42.614;23.340;2023-06-22T12:25:32;11.77;;;10.77;;
9689;SDS011;4884;42.614;23.340;2023-06-22T12:27:58;12.20;;;11.00;;
9689;SDS011;4884;42.614;23.340;2023-06-22T12:30:23;11.55;;;10.65;;
9689;SDS011;4884;42.614;23.340;2023-06-22T12:32:48;12.60;;;11.20;;
9689;SDS011;4884;42.614;23.340;2023-06-22T12:35:15;12.13;;;11.02;;
9689;SDS011;4884;42.614;23.340;2023-06-22T12:37:41;14.15;;;12.88;;
9689;SDS011;4884;42.614;23.340;2023-06-22T12:40:07;13.75;;;12.40;;
9689;SDS011;4884;42.614;23.340;2023-06-22T12:42:33;16.50;;;14.10;;
9689;SDS011;4884;42.614;23.340;2023-06-22T12:44:58;16.58;;;14.15;;
9689;SDS011;4884;42.614;23.340;2023-06-22T12:47:24;20.58;;;14.45;;
9689;SDS011;4884;42.614;23.340;2023-06-22T12:49:49;21.23;;;14.80;;
9689;SDS011;4884;42.614;23.340;2023-06-22T12:52:15;17.88;;;14.07;;
9689;SDS011;4884;42.614;23.340;2023-06-22T12:54:40;17.50;;;14.88;;
9689;SDS011;4884;42.614;23.340;2023-06-22T12:57:06;17.33;;;15.63;;
9689;SDS011;4884;42.614;23.340;2023-06-22T12:59:31;15.67;;;14.17;;
9689;SDS011;4884;42.614;23.340;2023-06-22T13:01:57;18.13;;;15.80;;
9689;SDS011;4884;42.614;23.340;2023-06-22T13:04:22;17.50;;;15.63;;
9689;SDS011;4884;42.614;23.340;2023-06-22T13:06:47;16.23;;;14.60;;
9689;SDS011;4884;42.614;23.340;2023-06-22T13:09:13;16.23;;;14.53;;
9689;SDS011;4884;42.614;23.340;2023-06-22T13:11:39;15.90;;;14.27;;
9689;SDS011;4884;42.614;23.340;2023-06-22T13:14:05;15.67;;;14.20;;
9689;SDS011;4884;42.614;23.340;2023-06-22T13:16:30;16.23;;;14.73;;
9689;SDS011;4884;42.614;23.340;2023-06-22T13:18:55;17.37;;;15.57;;
9689;SDS011;4884;42.614;23.340;2023-06-22T13:21:21;15.47;;;14.00;;
9689;SDS011;4884;42.614;23.340;2023-06-22T13:23:46;15.37;;;13.83;;
9689;SDS011;4884;42.614;23.340;2023-06-22T13:26:12;17.60;;;14.63;;
9689;SDS011;4884;42.614;23.340;2023-06-22T13:28:37;14.53;;;13.07;;
9689;SDS011;4884;42.614;23.340;2023-06-22T13:31:02;15.30;;;13.90;;
9689;SDS011;4884;42.614;23.340;2023-06-22T13:33:28;15.50;;;13.90;;
9689;SDS011;4884;42.614;23.340;2023-06-22T13:35:53;15.00;;;13.50;;
9689;SDS011;4884;42.614;23.340;2023-06-22T13:38:19;14.83;;;13.33;;
9689;SDS011;4884;42.614;23.340;2023-06-22T13:40:44;15.60;;;14.10;;
9689;SDS011;4884;42.614;23.340;2023-06-22T13:43:10;15.80;;;14.40;;
9689;SDS011;4884;42.614;23.340;2023-06-22T13:45:35;15.47;;;13.97;;
9689;SDS011;4884;42.614;23.340;2023-06-22T13:48:01;16.23;;;14.67;;
9689;SDS011;4884;42.614;23.340;2023-06-22T13:50:26;15.20;;;13.83;;
9689;SDS011;4884;42.614;23.340;2023-06-22T13:52:51;16.20;;;14.77;;
9689;SDS011;4884;42.614;23.340;2023-06-22T13:55:17;18.17;;;16.23;;
9689;SDS011;4884;42.614;23.340;2023-06-22T13:57:44;17.60;;;15.93;;
9689;SDS011;4884;42.614;23.340;2023-06-22T14:00:10;16.07;;;14.60;;
9689;SDS011;4884;42.614;23.340;2023-06-22T14:02:37;16.90;;;15.40;;
9689;SDS011;4884;42.614;23.340;2023-06-22T14:05:03;15.40;;;13.87;;
9689;SDS011;4884;42.614;23.340;2023-06-22T14:07:28;15.67;;;14.00;;
9689;SDS011;4884;42.614;23.340;2023-06-22T14:09:54;15.77;;;14.27;;
9689;SDS011;4884;42.614;23.340;2023-06-22T14:12:19;19.10;;;15.67;;
9689;SDS011;4884;42.614;23.340;2023-06-22T14:14:45;28.03;;;19.07;;
9689;SDS011;4884;42.614;23.340;2023-06-22T14:17:10;47.37;;;24.50;;
9689;SDS011;4884;42.614;23.340;2023-06-22T14:19:36;30.97;;;18.43;;
9689;SDS011;4884;42.614;23.340;2023-06-22T14:22:01;31.17;;;21.40;;
9689;SDS011;4884;42.614;23.340;2023-06-22T14:24:27;13.97;;;12.57;;
9689;SDS011;4884;42.614;23.340;2023-06-22T14:26:53;17.67;;;14.10;;
9689;SDS011;4884;42.614;23.340;2023-06-22T14:29:19;13.63;;;12.43;;
9689;SDS011;4884;42.614;23.340;2023-06-22T14:31:45;13.30;;;12.00;;
9689;SDS011;4884;42.614;23.340;2023-06-22T14:34:11;13.17;;;11.87;;
9689;SDS011;4884;42.614;23.340;2023-06-22T14:36:36;14.40;;;12.90;;